Wind From: 13-12-2017 10:08 Until: 14-12-2017 06:00 warning for: Wind Level: Yellow info button

Although rather usual in this region, locally or potentially dangerous phenomena are expected. (such as local winds, summer thunderstorms, rising streams or high waves) Be aware and pay attention to the latest weather updates, especially if you carry out activities exposed to weather or close to a stream or shoreline. 


Meteo18 Weather Cam more information Meteo18 Weather Cam


Thunder radar more information blitzortung!


Rain radar more information rain snow radar


Visit our other weather sites:

Template documentation
and downloads

And another site



Weather Underground History page Text

Daily Summary for June 18, 2016 Units:  Metric    English   Both
« Previous Day
Next Day »
Daily Weekly Monthly Yearly Custom
  High: Low: Average:
Temperature: 21.9 °C 11.4 °C 16.2 °C
Dew Point: 13.8 °C 10.8 °C 12.3 °C
Humidity: 97 % 52 % 80 %
Wind Speed: 6.4 km/h 0.0 km/h 0.7 km/h
Wind Gust: 16.1 km/h - -
Wind:- - South
Pressure: 1022.9 hPa 1015.1 hPa -
Precipitation: 0.3 mm    
Historical Graphs
 
 
Tabular Data for June 18, 2016
Time Temperature Dew Point Pressure Wind Wind Speed Wind Gust Humidity Rainfall Rate (Hourly)
00:02 11.7 °C 11.1 °C 1015.1 hPa Calm     96 % 0.0 mm
00:12 11.4 °C 10.8 °C 1015.1 hPa Calm     96 % 0.0 mm
00:17 11.4 °C 10.8 °C 1015.1 hPa Calm     96 % 0.0 mm
00:22 11.4 °C 10.9 °C 1015.1 hPa Calm     97 % 0.0 mm
00:27 11.7 °C 11.2 °C 1015.1 hPa Calm     97 % 0.0 mm
00:32 11.9 °C 11.4 °C 1015.1 hPa Calm     97 % 0.0 mm
00:42 11.9 °C 11.4 °C 1015.5 hPa Calm     97 % 0.0 mm
00:47 11.9 °C 11.4 °C 1015.5 hPa Calm     97 % 0.0 mm
00:52 11.9 °C 11.4 °C 1015.5 hPa Calm     97 % 0.0 mm
01:02 11.9 °C 11.3 °C 1015.5 hPa Calm     96 % 0.0 mm
01:07 11.9 °C 11.4 °C 1015.5 hPa Calm     97 % 0.3 mm
01:17 11.9 °C 11.4 °C 1015.5 hPa Calm     97 % 0.3 mm
01:22 11.9 °C 11.4 °C 1015.1 hPa Calm     97 % 0.3 mm
01:27 11.8 °C 11.3 °C 1015.5 hPa Calm     97 % 0.3 mm
01:32 11.8 °C 11.3 °C 1015.5 hPa WSW 1.6 km/h   97 % 0.3 mm
01:37 11.8 °C 11.2 °C 1015.5 hPa Calm   3.2 km/h 96 % 0.3 mm
01:42 11.8 °C 11.2 °C 1015.5 hPa Calm   3.2 km/h 96 % 0.3 mm
01:47 11.7 °C 11.1 °C 1015.5 hPa Calm   3.2 km/h 96 % 0.3 mm
01:52 11.7 °C 11.1 °C 1015.5 hPa Calm   3.2 km/h 96 % 0.3 mm
01:57 11.7 °C 11.2 °C 1015.5 hPa Calm   1.6 km/h 97 % 0.3 mm
02:02 11.8 °C 11.3 °C 1015.5 hPa Calm   1.6 km/h 97 % 0.3 mm
02:07 11.8 °C 11.3 °C 1015.5 hPa Calm   1.6 km/h 97 % 0.0 mm
02:12 11.8 °C 11.3 °C 1015.5 hPa Calm   3.2 km/h 97 % 0.0 mm
02:17 11.8 °C 11.3 °C 1015.5 hPa Calm   3.2 km/h 97 % 0.0 mm
02:22 11.8 °C 11.3 °C 1015.5 hPa Calm   3.2 km/h 97 % 0.0 mm
02:27 11.8 °C 11.3 °C 1015.5 hPa Calm   1.6 km/h 97 % 0.0 mm
02:32 11.7 °C 11.2 °C 1015.5 hPa SW 3.2 km/h 4.8 km/h 97 % 0.0 mm
02:37 11.8 °C 11.3 °C 1015.8 hPa SW 1.6 km/h 4.8 km/h 97 % 0.0 mm
02:42 11.8 °C 11.3 °C 1015.8 hPa SW 4.8 km/h 4.8 km/h 97 % 0.0 mm
02:47 11.9 °C 11.4 °C 1015.8 hPa WSW 1.6 km/h 4.8 km/h 97 % 0.0 mm
02:52 12.0 °C 11.5 °C 1015.5 hPa Calm   4.8 km/h 97 % 0.0 mm
02:57 12.0 °C 11.5 °C 1015.8 hPa Calm   4.8 km/h 97 % 0.0 mm
03:02 12.0 °C 11.5 °C 1015.8 hPa WSW 4.8 km/h 4.8 km/h 97 % 0.0 mm
03:07 12.1 °C 11.6 °C 1015.8 hPa SW 1.6 km/h 4.8 km/h 97 % 0.0 mm
03:12 12.1 °C 11.6 °C 1015.8 hPa Calm   8.0 km/h 97 % 0.0 mm
03:17 12.1 °C 11.6 °C 1015.5 hPa Calm   8.0 km/h 97 % 0.0 mm
03:22 12.1 °C 11.6 °C 1015.8 hPa Calm   8.0 km/h 97 % 0.0 mm
03:27 12.1 °C 11.6 °C 1015.8 hPa WSW 1.6 km/h 6.4 km/h 97 % 0.0 mm
03:32 12.1 °C 11.6 °C 1015.5 hPa WSW 1.6 km/h 6.4 km/h 97 % 0.0 mm
03:37 12.2 °C 11.7 °C 1015.8 hPa Calm   4.8 km/h 97 % 0.0 mm
03:42 12.2 °C 11.7 °C 1015.5 hPa WSW 1.6 km/h 4.8 km/h 97 % 0.0 mm
03:47 12.1 °C 11.6 °C 1015.5 hPa Calm   4.8 km/h 97 % 0.0 mm
03:52 12.1 °C 11.6 °C 1015.5 hPa Calm   1.6 km/h 97 % 0.0 mm
03:57 12.2 °C 11.7 °C 1015.5 hPa Calm   1.6 km/h 97 % 0.0 mm
04:02 12.2 °C 11.7 °C 1015.8 hPa Calm   1.6 km/h 97 % 0.0 mm
04:07 12.3 °C 11.8 °C 1015.8 hPa Calm   1.6 km/h 97 % 0.0 mm
04:12 12.3 °C 11.8 °C 1015.8 hPa Calm   4.8 km/h 97 % 0.0 mm
04:17 12.3 °C 11.8 °C 1015.8 hPa WSW 1.6 km/h 4.8 km/h 97 % 0.0 mm
04:22 12.4 °C 11.9 °C 1015.8 hPa Calm   4.8 km/h 97 % 0.0 mm
04:27 12.4 °C 11.8 °C 1015.8 hPa Calm   4.8 km/h 96 % 0.0 mm
04:32 12.4 °C 11.8 °C 1015.8 hPa Calm   3.2 km/h 96 % 0.0 mm
04:37 12.4 °C 11.8 °C 1015.8 hPa Calm   3.2 km/h 96 % 0.0 mm
04:42 12.5 °C 11.9 °C 1015.8 hPa Calm   3.2 km/h 96 % 0.0 mm
04:47 12.4 °C 11.8 °C 1016.1 hPa WSW 3.2 km/h 6.4 km/h 96 % 0.0 mm
04:52 12.4 °C 11.8 °C 1016.1 hPa Calm   6.4 km/h 96 % 0.0 mm
04:57 12.4 °C 11.8 °C 1016.1 hPa WSW 1.6 km/h 6.4 km/h 96 % 0.0 mm
05:02 12.4 °C 11.8 °C 1015.8 hPa Calm   6.4 km/h 96 % 0.0 mm
05:12 12.4 °C 11.8 °C 1016.1 hPa Calm   6.4 km/h 96 % 0.0 mm
05:17 12.4 °C 11.8 °C 1016.1 hPa WSW 1.6 km/h 8.0 km/h 96 % 0.0 mm
05:27 12.3 °C 11.7 °C 1016.1 hPa West 1.6 km/h 8.0 km/h 96 % 0.0 mm
05:32 12.3 °C 11.7 °C 1016.1 hPa Calm   3.2 km/h 96 % 0.0 mm
05:37 12.4 °C 11.8 °C 1016.1 hPa Calm   3.2 km/h 96 % 0.0 mm
05:42 12.4 °C 11.8 °C 1016.1 hPa Calm   3.2 km/h 96 % 0.0 mm
05:47 12.4 °C 11.8 °C 1016.1 hPa Calm   3.2 km/h 96 % 0.0 mm
05:52 12.4 °C 11.8 °C 1016.5 hPa Calm   1.6 km/h 96 % 0.0 mm
05:57 12.4 °C 11.8 °C 1016.5 hPa Calm   3.2 km/h 96 % 0.0 mm
06:02 12.5 °C 11.9 °C 1016.5 hPa Calm   3.2 km/h 96 % 0.0 mm
06:12 12.6 °C 12.0 °C 1016.5 hPa Calm   1.6 km/h 96 % 0.0 mm
06:17 12.5 °C 11.9 °C 1016.5 hPa Calm     96 % 0.0 mm
06:22 12.6 °C 12.0 °C 1016.8 hPa Calm     96 % 0.0 mm
06:32 12.6 °C 12.0 °C 1016.8 hPa Calm     96 % 0.0 mm
06:42 12.7 °C 12.1 °C 1016.8 hPa Calm     96 % 0.0 mm
06:47 12.7 °C 12.1 °C 1016.8 hPa Calm     96 % 0.0 mm
06:52 12.7 °C 12.1 °C 1017.2 hPa Calm     96 % 0.0 mm
06:57 12.7 °C 12.1 °C 1017.2 hPa Calm     96 % 0.0 mm
07:02 12.6 °C 12.0 °C 1017.2 hPa Calm     96 % 0.0 mm
07:12 12.6 °C 12.0 °C 1017.2 hPa Calm   3.2 km/h 96 % 0.0 mm
07:17 12.6 °C 12.0 °C 1017.2 hPa Calm   3.2 km/h 96 % 0.0 mm
07:22 12.6 °C 12.0 °C 1017.5 hPa Calm   1.6 km/h 96 % 0.0 mm
07:27 12.6 °C 12.0 °C 1017.5 hPa Calm   3.2 km/h 96 % 0.0 mm
07:32 12.6 °C 12.0 °C 1017.5 hPa Calm   3.2 km/h 96 % 0.0 mm
07:37 12.6 °C 12.0 °C 1017.5 hPa Calm   3.2 km/h 96 % 0.0 mm
07:42 12.6 °C 12.0 °C 1017.5 hPa Calm   1.6 km/h 96 % 0.0 mm
07:47 12.6 °C 12.0 °C 1017.8 hPa Calm   3.2 km/h 96 % 0.0 mm
07:52 12.6 °C 11.8 °C 1017.8 hPa Calm   3.2 km/h 95 % 0.0 mm
07:57 12.6 °C 11.8 °C 1017.8 hPa Calm   3.2 km/h 95 % 0.0 mm
08:02 12.6 °C 11.8 °C 1017.8 hPa Calm   1.6 km/h 95 % 0.0 mm
08:12 12.9 °C 12.1 °C 1017.8 hPa Calm   1.6 km/h 95 % 0.0 mm
08:17 13.0 °C 12.2 °C 1017.8 hPa SW 1.6 km/h 3.2 km/h 95 % 0.0 mm
08:22 13.1 °C 12.2 °C 1017.8 hPa SW 1.6 km/h 4.8 km/h 94 % 0.0 mm
08:32 13.2 °C 12.1 °C 1017.8 hPa SW 1.6 km/h 4.8 km/h 93 % 0.0 mm
08:37 13.3 °C 12.2 °C 1017.8 hPa WSW 1.6 km/h 4.8 km/h 93 % 0.0 mm
08:42 13.3 °C 12.2 °C 1017.8 hPa Calm   4.8 km/h 93 % 0.0 mm
08:47 13.3 °C 12.2 °C 1018.2 hPa WSW 1.6 km/h 6.4 km/h 93 % 0.0 mm
08:52 13.6 °C 12.5 °C 1018.2 hPa Calm   6.4 km/h 93 % 0.0 mm
08:57 13.8 °C 12.5 °C 1018.2 hPa West 1.6 km/h 4.8 km/h 92 % 0.0 mm
09:02 13.7 °C 12.3 °C 1018.2 hPa WSW 1.6 km/h 4.8 km/h 91 % 0.0 mm
09:12 13.6 °C 12.2 °C 1018.5 hPa Calm   6.4 km/h 91 % 0.0 mm
09:17 13.7 °C 12.4 °C 1018.5 hPa Calm   6.4 km/h 92 % 0.0 mm
09:22 13.9 °C 12.6 °C 1018.8 hPa WSW 3.2 km/h 4.8 km/h 92 % 0.0 mm
09:32 14.1 °C 12.5 °C 1018.8 hPa West 3.2 km/h 4.8 km/h 90 % 0.0 mm
09:37 14.1 °C 12.3 °C 1018.8 hPa Calm   6.4 km/h 89 % 0.0 mm
09:42 14.5 °C 12.9 °C 1018.8 hPa Calm   8.0 km/h 90 % 0.0 mm
09:47 14.7 °C 12.7 °C 1018.8 hPa Calm   8.0 km/h 88 % 0.0 mm
09:52 14.8 °C 12.7 °C 1018.8 hPa Calm   8.0 km/h 87 % 0.0 mm
09:57 15.2 °C 13.0 °C 1018.8 hPa Calm   6.4 km/h 87 % 0.0 mm
10:02 15.2 °C 13.0 °C 1018.8 hPa Calm   6.4 km/h 87 % 0.0 mm
10:12 15.4 °C 12.9 °C 1018.8 hPa WSW 1.6 km/h 3.2 km/h 85 % 0.0 mm
10:17 15.3 °C 13.1 °C 1018.8 hPa SW 3.2 km/h 6.4 km/h 87 % 0.0 mm
10:22 15.4 °C 12.9 °C 1018.8 hPa WSW 1.6 km/h 6.4 km/h 85 % 0.0 mm
10:27 15.4 °C 12.9 °C 1019.2 hPa WSW 3.2 km/h 9.7 km/h 85 % 0.0 mm
10:32 15.8 °C 13.3 °C 1019.2 hPa WSW 1.6 km/h 9.7 km/h 85 % 0.0 mm
10:37 16.4 °C 13.1 °C 1019.2 hPa WNW 3.2 km/h 9.7 km/h 81 % 0.0 mm
10:47 15.9 °C 12.8 °C 1019.2 hPa Calm   9.7 km/h 82 % 0.0 mm
10:52 16.1 °C 13.2 °C 1019.2 hPa Calm   9.7 km/h 83 % 0.0 mm
10:57 16.3 °C 13.0 °C 1019.2 hPa Calm   6.4 km/h 81 % 0.0 mm
11:02 16.7 °C 13.6 °C 1019.2 hPa SW 1.6 km/h 4.8 km/h 82 % 0.0 mm
11:07 16.9 °C 12.6 °C 1019.2 hPa Calm   8.0 km/h 76 % 0.0 mm
11:12 17.2 °C 13.3 °C 1019.2 hPa WSW 3.2 km/h 8.0 km/h 78 % 0.0 mm
11:17 17.4 °C 13.5 °C 1019.2 hPa West 3.2 km/h 8.0 km/h 78 % 0.0 mm
11:22 17.4 °C 13.1 °C 1019.5 hPa WSW 3.2 km/h 6.4 km/h 76 % 0.0 mm
11:27 17.9 °C 13.4 °C 1019.5 hPa Calm   6.4 km/h 75 % 0.0 mm
11:32 17.9 °C 13.2 °C 1019.5 hPa SSW 1.6 km/h 6.4 km/h 74 % 0.0 mm
11:37 18.2 °C 13.3 °C 1019.5 hPa West 3.2 km/h 6.4 km/h 73 % 0.0 mm
11:42 18.6 °C 13.2 °C 1019.5 hPa Calm   6.4 km/h 71 % 0.0 mm
11:47 18.9 °C 13.5 °C 1019.5 hPa Calm   6.4 km/h 71 % 0.0 mm
11:52 19.3 °C 13.0 °C 1019.5 hPa SW 1.6 km/h 8.0 km/h 67 % 0.0 mm
11:57 19.4 °C 12.7 °C 1019.5 hPa SW 3.2 km/h 8.0 km/h 65 % 0.0 mm
12:02 19.1 °C 12.6 °C 1019.5 hPa Calm   8.0 km/h 66 % 0.0 mm
12:12 18.8 °C 12.8 °C 1019.5 hPa WSW 3.2 km/h 6.4 km/h 68 % 0.0 mm
12:17 19.2 °C 13.4 °C 1019.5 hPa East 1.6 km/h 6.4 km/h 69 % 0.0 mm
12:22 19.3 °C 12.3 °C 1019.5 hPa Calm   6.4 km/h 64 % 0.0 mm
12:27 19.7 °C 13.2 °C 1019.5 hPa SW 6.4 km/h 6.4 km/h 66 % 0.0 mm
12:32 19.5 °C 12.5 °C 1019.5 hPa Calm   8.0 km/h 64 % 0.0 mm
12:37 19.4 °C 12.7 °C 1019.5 hPa Calm   8.0 km/h 65 % 0.0 mm
12:42 19.8 °C 12.6 °C 1019.5 hPa Calm   8.0 km/h 63 % 0.0 mm
12:47 20.2 °C 13.6 °C 1019.5 hPa WSW 1.6 km/h 6.4 km/h 66 % 0.0 mm
12:52 20.6 °C 12.3 °C 1019.5 hPa East 1.6 km/h 8.0 km/h 59 % 0.0 mm
12:57 20.8 °C 13.0 °C 1019.5 hPa West 1.6 km/h 8.0 km/h 61 % 0.0 mm
13:02 20.8 °C 12.7 °C 1019.5 hPa WSW 1.6 km/h 9.7 km/h 60 % 0.0 mm
13:07 20.7 °C 12.1 °C 1019.5 hPa Calm   9.7 km/h 58 % 0.0 mm
13:12 20.7 °C 13.2 °C 1019.5 hPa Calm   8.0 km/h 62 % 0.0 mm
13:17 20.8 °C 12.5 °C 1019.5 hPa SW 3.2 km/h 9.7 km/h 59 % 0.0 mm
13:22 21.0 °C 12.4 °C 1019.5 hPa West 1.6 km/h 9.7 km/h 58 % 0.0 mm
13:27 21.4 °C 12.3 °C 1019.5 hPa NNE 1.6 km/h 9.7 km/h 56 % 0.0 mm
13:32 20.9 °C 12.1 °C 1019.5 hPa Calm   8.0 km/h 57 % 0.0 mm
13:37 21.2 °C 12.1 °C 1019.5 hPa WSW 3.2 km/h 8.0 km/h 56 % 0.0 mm
13:42 21.3 °C 11.6 °C 1019.5 hPa West 1.6 km/h 8.0 km/h 54 % 0.0 mm
13:47 20.9 °C 11.8 °C 1019.5 hPa South 1.6 km/h 8.0 km/h 56 % 0.0 mm
13:57 20.7 °C 11.6 °C 1019.5 hPa Calm   8.0 km/h 56 % 0.0 mm
14:02 21.1 °C 13.0 °C 1019.5 hPa SSE 1.6 km/h 8.0 km/h 60 % 0.0 mm
14:07 21.6 °C 13.0 °C 1019.5 hPa Calm   11.3 km/h 58 % 0.0 mm
14:12 21.9 °C 12.7 °C 1019.5 hPa WSW 4.8 km/h 11.3 km/h 56 % 0.0 mm
14:17 21.9 °C 11.6 °C 1019.5 hPa WSW 3.2 km/h 11.3 km/h 52 % 0.0 mm
14:22 21.2 °C 12.3 °C 1019.5 hPa Calm   8.0 km/h 57 % 0.0 mm
14:27 20.6 °C 12.0 °C 1019.5 hPa Calm   8.0 km/h 58 % 0.0 mm
14:32 20.1 °C 12.1 °C 1019.9 hPa SW 3.2 km/h 8.0 km/h 60 % 0.0 mm
14:37 19.7 °C 12.0 °C 1019.9 hPa Calm   8.0 km/h 61 % 0.0 mm
14:42 19.4 °C 11.7 °C 1019.5 hPa East 1.6 km/h 8.0 km/h 61 % 0.0 mm
14:47 19.5 °C 12.7 °C 1019.9 hPa Calm   4.8 km/h 65 % 0.0 mm
14:52 19.6 °C 11.9 °C 1019.9 hPa WSW 3.2 km/h 3.2 km/h 61 % 0.0 mm
14:57 19.6 °C 11.9 °C 1019.5 hPa Calm   3.2 km/h 61 % 0.0 mm
15:02 20.2 °C 12.4 °C 1019.5 hPa SW 3.2 km/h 3.2 km/h 61 % 0.0 mm
15:07 20.8 °C 13.0 °C 1019.5 hPa Calm   8.0 km/h 61 % 0.0 mm
15:12 20.9 °C 12.6 °C 1019.5 hPa Calm   8.0 km/h 59 % 0.0 mm
15:17 20.9 °C 12.1 °C 1019.5 hPa SSW 3.2 km/h 8.0 km/h 57 % 0.0 mm
15:22 20.3 °C 12.0 °C 1019.5 hPa Calm   6.4 km/h 59 % 0.0 mm
15:27 19.9 °C 12.4 °C 1019.5 hPa Calm   9.7 km/h 62 % 0.0 mm
15:32 20.6 °C 12.3 °C 1019.9 hPa Calm   9.7 km/h 59 % 0.0 mm
15:42 21.6 °C 12.2 °C 1019.5 hPa Calm   6.4 km/h 55 % 0.0 mm
15:47 21.3 °C 11.6 °C 1019.5 hPa Calm   6.4 km/h 54 % 0.0 mm
15:52 21.3 °C 11.9 °C 1019.5 hPa Calm   6.4 km/h 55 % 0.0 mm
15:57 21.8 °C 13.4 °C 1019.5 hPa SW 1.6 km/h 4.8 km/h 59 % 0.0 mm
16:02 21.8 °C 11.5 °C 1019.5 hPa Calm   6.4 km/h 52 % 0.0 mm
16:07 21.3 °C 12.2 °C 1019.5 hPa ENE 1.6 km/h 6.4 km/h 56 % 0.0 mm
16:12 20.6 °C 12.8 °C 1019.9 hPa Calm   6.4 km/h 61 % 0.0 mm
16:17 20.4 °C 12.9 °C 1019.9 hPa NE 1.6 km/h 6.4 km/h 62 % 0.0 mm
16:22 20.1 °C 11.8 °C 1019.9 hPa Calm   6.4 km/h 59 % 0.0 mm
16:27 19.7 °C 12.0 °C 1019.9 hPa NE 1.6 km/h 4.8 km/h 61 % 0.0 mm
16:32 19.6 °C 11.1 °C 1019.9 hPa Calm   11.3 km/h 58 % 0.0 mm
16:42 20.2 °C 13.4 °C 1019.9 hPa Calm   11.3 km/h 65 % 0.0 mm
16:47 20.4 °C 12.9 °C 1019.9 hPa Calm   6.4 km/h 62 % 0.0 mm
16:52 20.2 °C 12.2 °C 1019.9 hPa Calm   8.0 km/h 60 % 0.0 mm
16:57 19.7 °C 12.5 °C 1019.9 hPa Calm   8.0 km/h 63 % 0.0 mm
17:02 19.6 °C 12.1 °C 1019.9 hPa NE 3.2 km/h 8.0 km/h 62 % 0.0 mm
17:12 19.6 °C 11.9 °C 1019.9 hPa Calm   9.7 km/h 61 % 0.0 mm
17:17 19.5 °C 12.3 °C 1019.9 hPa NE 1.6 km/h 11.3 km/h 63 % 0.0 mm
17:22 19.6 °C 13.1 °C 1019.9 hPa Calm   11.3 km/h 66 % 0.0 mm
17:27 19.8 °C 12.8 °C 1019.9 hPa Calm   11.3 km/h 64 % 0.0 mm
17:32 20.0 °C 12.7 °C 1019.9 hPa Calm   4.8 km/h 63 % 0.0 mm
17:37 20.3 °C 13.0 °C 1019.9 hPa Calm   4.8 km/h 63 % 0.0 mm
17:42 20.6 °C 13.1 °C 1019.9 hPa Calm   4.8 km/h 62 % 0.0 mm
17:47 20.8 °C 13.3 °C 1019.9 hPa Calm   4.8 km/h 62 % 0.0 mm
17:52 20.8 °C 13.0 °C 1019.9 hPa Calm   4.8 km/h 61 % 0.0 mm
17:57 21.2 °C 13.4 °C 1019.9 hPa Calm   3.2 km/h 61 % 0.0 mm
18:02 21.1 °C 13.8 °C 1019.9 hPa Calm   3.2 km/h 63 % 0.0 mm
18:07 20.7 °C 12.7 °C 1019.9 hPa Calm   3.2 km/h 60 % 0.0 mm
18:12 21.1 °C 13.0 °C 1019.9 hPa NE 3.2 km/h 3.2 km/h 60 % 0.0 mm
18:17 21.5 °C 12.4 °C 1019.9 hPa ENE 1.6 km/h 3.2 km/h 56 % 0.0 mm
18:22 21.7 °C 12.3 °C 1019.9 hPa Calm   11.3 km/h 55 % 0.0 mm
18:27 21.7 °C 12.3 °C 1019.9 hPa Calm   11.3 km/h 55 % 0.0 mm
18:32 21.4 °C 12.5 °C 1019.9 hPa Calm   11.3 km/h 57 % 0.0 mm
18:37 21.0 °C 12.4 °C 1019.9 hPa Calm   6.4 km/h 58 % 0.0 mm
18:42 20.7 °C 12.7 °C 1019.9 hPa Calm   4.8 km/h 60 % 0.0 mm
18:47 20.8 °C 12.7 °C 1019.9 hPa SSW 1.6 km/h 4.8 km/h 60 % 0.0 mm
18:52 20.9 °C 12.6 °C 1019.9 hPa East 3.2 km/h 16.1 km/h 59 % 0.0 mm
18:57 20.6 °C 12.3 °C 1019.9 hPa ENE 4.8 km/h 16.1 km/h 59 % 0.0 mm
19:02 20.3 °C 11.5 °C 1020.2 hPa NNE 4.8 km/h 16.1 km/h 57 % 0.0 mm
19:07 20.1 °C 12.8 °C 1020.2 hPa Calm   8.0 km/h 63 % 0.0 mm
19:12 20.1 °C 12.3 °C 1020.2 hPa Calm   8.0 km/h 61 % 0.0 mm
19:17 19.9 °C 12.6 °C 1020.2 hPa Calm   4.8 km/h 63 % 0.0 mm
19:22 19.7 °C 12.5 °C 1020.2 hPa Calm   4.8 km/h 63 % 0.0 mm
19:27 19.4 °C 13.1 °C 1020.2 hPa Calm   3.2 km/h 67 % 0.0 mm
19:32 19.4 °C 12.9 °C 1020.2 hPa Calm   3.2 km/h 66 % 0.0 mm
19:37 19.5 °C 13.0 °C 1020.2 hPa Calm   1.6 km/h 66 % 0.0 mm
19:42 19.6 °C 13.3 °C 1020.5 hPa Calm   1.6 km/h 67 % 0.0 mm
19:47 19.5 °C 13.4 °C 1020.5 hPa Calm   1.6 km/h 68 % 0.0 mm
19:52 19.3 °C 13.2 °C 1020.5 hPa Calm     68 % 0.0 mm
19:57 19.1 °C 13.3 °C 1020.5 hPa Calm     69 % 0.0 mm
20:02 19.0 °C 13.0 °C 1020.5 hPa Calm   1.6 km/h 68 % 0.0 mm
20:07 18.9 °C 12.9 °C 1020.5 hPa Calm   1.6 km/h 68 % 0.0 mm
20:12 18.8 °C 13.4 °C 1020.9 hPa Calm   1.6 km/h 71 % 0.0 mm
20:17 18.4 °C 13.5 °C 1020.9 hPa NE 1.6 km/h 1.6 km/h 73 % 0.0 mm
20:22 17.8 °C 12.9 °C 1020.9 hPa ENE 1.6 km/h 6.4 km/h 73 % 0.0 mm
20:27 17.5 °C 13.0 °C 1020.9 hPa NE 1.6 km/h 6.4 km/h 75 % 0.0 mm
20:32 17.3 °C 13.0 °C 1021.2 hPa Calm   6.4 km/h 76 % 0.0 mm
20:37 17.2 °C 13.1 °C 1021.2 hPa Calm   6.4 km/h 77 % 0.0 mm
20:42 17.1 °C 13.0 °C 1021.2 hPa Calm   3.2 km/h 77 % 0.0 mm
20:47 17.1 °C 13.2 °C 1021.2 hPa Calm   1.6 km/h 78 % 0.0 mm
20:52 16.9 °C 12.6 °C 1021.6 hPa Calm   1.6 km/h 76 % 0.0 mm
20:57 16.9 °C 12.2 °C 1021.6 hPa Calm   9.7 km/h 74 % 0.0 mm
21:02 16.9 °C 12.2 °C 1021.6 hPa Calm   9.7 km/h 74 % 0.0 mm
21:07 16.8 °C 12.5 °C 1021.6 hPa Calm   9.7 km/h 76 % 0.0 mm
21:12 16.7 °C 12.6 °C 1021.6 hPa Calm   3.2 km/h 77 % 0.0 mm
21:22 16.6 °C 12.4 °C 1021.6 hPa Calm   6.4 km/h 76 % 0.0 mm
21:27 16.4 °C 12.6 °C 1021.6 hPa NE 1.6 km/h 6.4 km/h 78 % 0.0 mm
21:32 16.2 °C 12.2 °C 1021.6 hPa Calm   6.4 km/h 77 % 0.0 mm
21:37 16.1 °C 12.3 °C 1021.6 hPa Calm   6.4 km/h 78 % 0.0 mm
21:42 15.9 °C 12.3 °C 1021.9 hPa NE 1.6 km/h 6.4 km/h 79 % 0.0 mm
21:47 15.8 °C 12.4 °C 1021.9 hPa Calm   6.4 km/h 80 % 0.0 mm
21:52 15.7 °C 12.3 °C 1021.9 hPa Calm   3.2 km/h 80 % 0.0 mm
21:57 15.6 °C 12.4 °C 1021.9 hPa Calm   3.2 km/h 81 % 0.0 mm
22:02 15.4 °C 12.3 °C 1022.2 hPa Calm   1.6 km/h 82 % 0.0 mm
22:07 15.3 °C 12.4 °C 1022.2 hPa Calm   1.6 km/h 83 % 0.0 mm
22:12 15.2 °C 12.3 °C 1022.2 hPa Calm   1.6 km/h 83 % 0.0 mm
22:17 15.1 °C 12.4 °C 1022.2 hPa Calm   1.6 km/h 84 % 0.0 mm
22:22 15.1 °C 12.4 °C 1022.2 hPa NE 3.2 km/h 3.2 km/h 84 % 0.0 mm
22:27 15.2 °C 12.5 °C 1022.6 hPa Calm   4.8 km/h 84 % 0.0 mm
22:32 15.2 °C 12.5 °C 1022.6 hPa Calm   4.8 km/h 84 % 0.0 mm
22:37 15.2 °C 12.7 °C 1022.6 hPa Calm   4.8 km/h 85 % 0.0 mm
22:42 15.1 °C 12.6 °C 1022.6 hPa Calm   3.2 km/h 85 % 0.0 mm
22:47 15.1 °C 12.6 °C 1022.6 hPa Calm   4.8 km/h 85 % 0.0 mm
22:52 15.1 °C 12.6 °C 1022.6 hPa Calm   4.8 km/h 85 % 0.0 mm
22:57 15.0 °C 12.5 °C 1022.6 hPa Calm   4.8 km/h 85 % 0.0 mm
23:02 14.9 °C 12.6 °C 1022.6 hPa Calm   4.8 km/h 86 % 0.0 mm
23:12 14.8 °C 12.7 °C 1022.6 hPa NE 1.6 km/h 4.8 km/h 87 % 0.0 mm
23:17 14.8 °C 12.7 °C 1022.9 hPa Calm   4.8 km/h 87 % 0.0 mm
23:27 14.7 °C 12.6 °C 1022.9 hPa NE 3.2 km/h 3.2 km/h 87 % 0.0 mm
23:32 14.7 °C 12.4 °C 1022.9 hPa ENE 1.6 km/h 4.8 km/h 86 % 0.0 mm
23:37 14.7 °C 12.6 °C 1022.9 hPa Calm   4.8 km/h 87 % 0.0 mm
23:42 14.6 °C 12.5 °C 1022.9 hPa Calm   4.8 km/h 87 % 0.0 mm
23:47 14.6 °C 12.5 °C 1022.9 hPa NE 1.6 km/h 4.8 km/h 87 % 0.0 mm
23:52 14.6 °C 12.6 °C 1022.9 hPa Calm   4.8 km/h 88 % 0.0 mm
23:57 14.5 °C 12.5 °C 1022.9 hPa East 1.6 km/h 4.8 km/h 88 % 0.0 mm
Meteo18
Compliments of Weather Underground - 4 mb

Script developed by  Jim McMurry - jmcmurry@mwt.net Adapted for the template by  Wim van der Kuil - Leuven-Template.eu

You find our weather info also at:

European Weather Network

Weather Underground

Equipment we use:

Weather-station
Davis Vue

Weather-program
Meteohub

Weather-server
Raspberry PI 2 B+

Provider
1 and 1

Davis Vue

Meteohub

Raspberry PI 2 B+

1 and 1